Thursday, October 19, 2017, 7:09 AM EDT
Back to Local

KSNC, Chester, Chester Airport

Location: Chester, CT, United States Lat: 41.384
Local Time: 7:09 AM EDT (11:09 GMT) Lon: -72.506
Time Zone: US/Eastern Elev: 416 ft

Show me the last for .
Show Coded

Time T Td Feel RH Dir Speed Gust Alt SLP Vis Weather Sky Remarks
2017-10-19 06:55 54 52 - 93 - Calm - 30.24 - 4 BR CLR None
2017-10-19 06:35 54 52 - 93 - Calm - 30.24 - 5 BR CLR None
2017-10-19 06:15 54 54 - 100 230° 3 - 30.25 - 6 BR CLR None
2017-10-19 05:55 54 54 - 100 - Calm - 30.25 - 7 CLR None
2017-10-19 05:35 54 54 - 100 - Calm - 30.25 - 7 CLR None
2017-10-19 05:15 54 54 - 100 - Calm - 30.25 - 9 CLR None
2017-10-19 04:55 54 52 - 93 - Calm - 30.25 - 8 CLR None
2017-10-19 04:35 54 52 - 93 - Calm - 30.25 - 6 BR CLR None
2017-10-19 04:15 54 54 - 100 - Calm - 30.25 - 8 CLR None
2017-10-19 03:55 55 54 - 93 - Calm - 30.25 - 10 CLR None
2017-10-19 03:35 55 55 - 100 230° 5 - 30.25 - 10 CLR None
2017-10-19 03:15 55 54 - 93 240° 3 - 30.25 - 10 CLR None
2017-10-19 02:55 54 52 - 93 240° 5 - 30.26 - 9 CLR None
2017-10-19 02:35 52 52 - 100 - Calm - 30.26 - 4 BR CLR None
2017-10-19 02:15 54 52 - 93 - Calm - 30.27 - 7 CLR None
2017-10-19 01:55 54 54 - 100 - Calm - 30.27 - 10 CLR None
2017-10-19 01:35 55 55 - 100 - Calm - 30.27 - 10 CLR None
2017-10-19 01:15 55 54 - 93 - Calm - 30.27 - 10 CLR None
2017-10-19 00:55 55 54 - 93 230° 3 - 30.27 - 10 CLR None
2017-10-19 00:35 55 54 - 93 230° 3 - 30.27 - 10 CLR None
2017-10-19 00:15 55 54 - 93 - Calm - 30.27 - 10 CLR None
2017-10-18 23:55 55 54 - 93 - Calm - 30.28 - 10 CLR None
2017-10-18 23:35 55 54 - 93 - Calm - 30.28 - 10 CLR None
2017-10-18 23:15 55 54 - 93 230° 3 - 30.28 - 10 CLR None
2017-10-18 22:55 57 54 - 87 - Calm - 30.29 - 10 CLR None
2017-10-18 22:35 55 54 - 93 - Calm - 30.29 - 10 CLR None
2017-10-18 22:15 55 54 - 93 230° 3 - 30.29 - 10 CLR None
2017-10-18 21:55 55 54 - 93 230° 3 - 30.29 - 10 CLR None
2017-10-18 21:35 57 52 - 82 - Calm - 30.29 - 10 CLR None
2017-10-18 21:15 57 54 - 87 - Calm - 30.29 - 10 CLR None
2017-10-18 20:55 57 54 - 87 220° 3 - 30.29 - 10 CLR None
2017-10-18 20:35 57 54 - 87 Variable 5 - 30.28 - 10 CLR None
2017-10-18 20:15 59 54 - 82 220° 5 - 30.28 - 10 CLR None
2017-10-18 19:55 59 54 - 82 210° 7 - 30.28 - 10 CLR None
2017-10-18 19:35 57 50 - 76 220° 5 - 30.28 - 10 CLR None
2017-10-18 19:15 57 50 - 76 - Calm - 30.28 - 10 CLR None
2017-10-18 18:55 59 50 - 72 - Calm - 30.27 - 10 CLR None
2017-10-18 18:35 59 48 - 67 250° 3 - 30.27 - 10 CLR None
2017-10-18 18:15 61 48 - 63 230° 3 - 30.26 - 10 CLR None
2017-10-18 17:55 63 48 - 59 - Calm - 30.26 - 10 CLR None
2017-10-18 17:35 64 46 - 52 210° 5 - 30.25 - 10 CLR None
2017-10-18 17:15 68 46 - 45 220° 3 - 30.25 - 10 CLR None
2017-10-18 16:55 68 46 - 45 220° 3 - 30.25 - 10 CLR None
2017-10-18 16:35 68 45 - 42 220° 6 - 30.25 - 10 CLR None
2017-10-18 16:15 70 45 - 40 210° 8 - 30.25 - 10 CLR None
2017-10-18 15:55 70 45 - 40 200° 8 - 30.25 - 10 CLR None
2017-10-18 15:35 70 45 - 40 230° 9 - 30.25 - 10 CLR None
2017-10-18 15:15 70 45 - 40 210° 9 - 30.25 - 10 CLR None
2017-10-18 14:55 72 48 76 43 Variable 7 - 30.26 - 10 CLR None
2017-10-18 14:35 72 48 76 43 200° 8 14 30.26 - 10 CLR None
2017-10-18 14:15 72 45 - 37 190° 7 - 30.26 - 10 CLR None
2017-10-18 13:55 73 45 - 35 250° 9 - 30.26 - 10 CLR None
2017-10-18 13:35 72 45 - 37 260° 5 - 30.27 - 10 CLR None
2017-10-18 13:15 70 45 - 40 Variable 5 - 30.28 - 10 CLR None
2017-10-18 12:15 70 45 - 40 320° 5 - 30.30 - 10 CLR None
2017-10-18 11:55 68 45 - 42 Variable 5 - 30.30 - 10 CLR None
2017-10-18 11:35 68 45 - 42 330° 10 - 30.30 - 10 CLR None
2017-10-18 11:15 66 43 - 42 Variable 3 - 30.30 - 10 CLR None
2017-10-18 10:55 66 43 - 42 - Calm - 30.30 - 10 CLR None
2017-10-18 10:35 63 43 - 48 320° 5 - 30.30 - 10 CLR None
2017-10-18 10:15 61 41 - 48 270° 3 - 30.31 - 10 CLR None
2017-10-18 09:55 61 41 - 48 - Calm - 30.31 - 10 CLR None
2017-10-18 09:35 57 39 - 50 - Calm - 30.30 - 10 CLR None
2017-10-18 09:15 55 39 - 54 - Calm - 30.30 - 10 CLR None
2017-10-18 08:55 52 39 - 62 Variable 5 - 30.29 - 10 CLR None
2017-10-18 08:35 50 39 48 66 250° 5 - 30.29 - 10 CLR None
2017-10-18 08:15 50 37 48 61 250° 5 - 30.29 - 10 CLR None
2017-10-18 07:55 48 37 46 66 Variable 5 - 30.28 - 10 CLR None
2017-10-18 07:35 46 37 44 70 250° 5 - 30.28 - 10 CLR None
2017-10-18 07:15 46 37 - 70 - Calm - 30.27 - 10 CLR None

Support USWX by starting your Amazon purchase here.